createdAt,value
2019-02-26T00:00:32.298Z,0.00
2019-02-26T00:01:32.291Z,0.00
2019-02-26T00:02:32.632Z,0.00
2019-02-26T00:03:33.232Z,0.00
2019-02-26T00:04:34.484Z,0.00
2019-02-26T00:05:33.078Z,0.00
2019-02-26T00:06:32.233Z,0.00
2019-02-26T00:07:32.311Z,0.00
2019-02-26T00:08:33.536Z,0.00
2019-02-26T00:09:35.034Z,0.00
2019-02-26T00:10:34.017Z,0.00
2019-02-26T00:11:33.387Z,0.00
2019-02-26T00:12:33.290Z,0.00
2019-02-26T00:13:34.098Z,0.00
2019-02-26T00:14:32.148Z,0.00
2019-02-26T00:15:35.496Z,0.00
2019-02-26T00:16:35.237Z,0.00
2019-02-26T00:17:36.191Z,0.00
2019-02-26T00:18:32.106Z,0.00
2019-02-26T00:19:32.094Z,0.00
2019-02-26T00:20:34.386Z,0.00
2019-02-26T00:21:32.074Z,0.00
2019-02-26T00:22:32.733Z,0.00
2019-02-26T00:23:32.084Z,0.00
2019-02-26T00:24:33.024Z,0.00
2019-02-26T00:25:32.031Z,0.00
2019-02-26T00:26:34.018Z,0.00
2019-02-26T00:27:33.003Z,0.00
2019-02-26T00:28:32.000Z,0.00
2019-02-26T00:29:32.242Z,0.00
2019-02-26T00:30:33.466Z,0.00
2019-02-26T00:31:31.968Z,0.00
2019-02-26T00:32:33.822Z,0.00
2019-02-26T00:33:31.947Z,0.00
2019-02-26T00:34:32.750Z,0.00
2019-02-26T00:35:31.937Z,0.00
2019-02-26T00:36:33.526Z,0.00
2019-02-26T00:37:31.905Z,0.00
2019-02-26T00:38:33.059Z,0.00
2019-02-26T00:39:31.885Z,0.00
2019-02-26T00:40:32.695Z,0.00
2019-02-26T00:41:33.537Z,0.00
2019-02-26T00:42:33.783Z,0.00
2019-02-26T00:43:32.381Z,0.00
2019-02-26T00:44:32.732Z,0.00
2019-02-26T00:45:34.006Z,0.00
2019-02-26T00:46:32.628Z,0.00
2019-02-26T00:47:33.859Z,0.00
2019-02-26T00:48:33.627Z,0.00
2019-02-26T00:49:31.779Z,0.00
2019-02-26T00:50:33.136Z,0.00
2019-02-26T00:51:31.769Z,0.00
2019-02-26T00:52:32.643Z,0.00
2019-02-26T00:53:33.051Z,0.00
2019-02-26T00:54:32.684Z,0.00
2019-02-26T00:55:32.173Z,0.00
2019-02-26T00:56:33.864Z,0.00
2019-02-26T00:57:33.443Z,0.00
2019-02-26T00:58:32.063Z,0.00
2019-02-26T00:59:31.692Z,0.00
2019-02-26T01:00:33.186Z,0.00
2019-02-26T01:01:31.653Z,0.00
2019-02-26T01:02:31.643Z,0.00
2019-02-26T01:03:31.633Z,0.00
2019-02-26T01:04:31.622Z,0.00
2019-02-26T01:05:31.624Z,0.00
2019-02-26T01:06:33.437Z,0.00
2019-02-26T01:07:31.589Z,0.00
2019-02-26T01:08:31.580Z,0.00
2019-02-26T01:09:32.353Z,0.00
2019-02-26T01:10:31.557Z,0.00
2019-02-26T01:11:31.577Z,0.00
2019-02-26T01:12:33.051Z,0.00
2019-02-26T01:13:32.271Z,0.00
2019-02-26T01:14:31.530Z,0.00
2019-02-26T01:15:31.502Z,0.00
2019-02-26T01:16:31.493Z,0.00
2019-02-26T01:17:33.264Z,0.00
2019-02-26T01:18:31.482Z,0.00
2019-02-26T01:19:32.087Z,0.00
2019-02-26T01:20:31.996Z,0.00
2019-02-26T01:21:33.537Z,0.00
2019-02-26T01:22:33.050Z,0.00
2019-02-26T01:23:31.430Z,0.00
2019-02-26T01:24:32.717Z,0.00
2019-02-26T01:25:31.395Z,0.00
2019-02-26T01:26:31.385Z,0.00
2019-02-26T01:27:31.375Z,0.00
2019-02-26T01:28:31.362Z,0.00
2019-02-26T01:29:32.354Z,0.00
2019-02-26T01:30:33.633Z,0.00
2019-02-26T01:31:32.073Z,0.00
2019-02-26T01:32:31.319Z,0.00
2019-02-26T01:33:32.140Z,0.00
2019-02-26T01:34:31.297Z,0.00
2019-02-26T01:35:33.162Z,0.00
2019-02-26T01:36:31.274Z,0.00
2019-02-26T01:37:32.205Z,0.00
2019-02-26T01:38:31.257Z,0.00
2019-02-26T01:39:31.243Z,0.00
2019-02-26T01:40:31.231Z,0.00
2019-02-26T01:41:31.238Z,0.00
2019-02-26T01:42:31.654Z,0.00
2019-02-26T01:43:31.198Z,0.00
2019-02-26T01:44:32.960Z,0.00
2019-02-26T01:45:32.367Z,0.00
2019-02-26T01:46:32.261Z,0.00
2019-02-26T01:47:31.168Z,0.00
2019-02-26T01:48:32.203Z,0.00
2019-02-26T01:49:31.135Z,0.00
2019-02-26T01:50:33.223Z,0.00
2019-02-26T01:51:31.115Z,0.00
2019-02-26T01:52:31.105Z,0.00
2019-02-26T01:53:31.103Z,0.00
2019-02-26T01:54:32.969Z,0.00
2019-02-26T01:55:31.069Z,0.00
2019-02-26T01:56:31.057Z,0.00
2019-02-26T01:57:31.047Z,0.00
2019-02-26T01:58:33.485Z,0.00
2019-02-26T01:59:33.588Z,0.00
2019-02-26T02:00:31.016Z,0.00
2019-02-26T02:01:31.003Z,0.00
2019-02-26T02:02:30.993Z,0.00
2019-02-26T02:03:32.570Z,0.00
2019-02-26T02:04:32.036Z,0.00
2019-02-26T02:05:31.442Z,0.00
2019-02-26T02:06:33.113Z,0.00
2019-02-26T02:07:30.945Z,0.00
2019-02-26T02:08:30.928Z,0.00
2019-02-26T02:09:30.920Z,0.00
2019-02-26T02:10:30.905Z,0.00
2019-02-26T02:11:31.602Z,0.00
2019-02-26T02:12:32.419Z,0.00
2019-02-26T02:13:32.967Z,0.00
2019-02-26T02:14:30.865Z,0.00
2019-02-26T02:15:30.850Z,0.00
2019-02-26T02:16:31.458Z,0.00
2019-02-26T02:17:31.605Z,0.00
2019-02-26T02:18:30.818Z,0.00
2019-02-26T02:19:32.559Z,0.00
2019-02-26T02:20:30.796Z,0.00
2019-02-26T02:21:31.472Z,0.00
2019-02-26T02:22:30.789Z,0.00
2019-02-26T02:23:30.773Z,0.00
2019-02-26T02:24:30.755Z,0.00
2019-02-26T02:25:33.169Z,0.00
2019-02-26T02:26:30.738Z,0.00
2019-02-26T02:27:33.130Z,0.00
2019-02-26T02:28:31.059Z,0.00
2019-02-26T02:29:30.710Z,0.00
2019-02-26T02:30:31.730Z,0.00
2019-02-26T02:31:32.226Z,0.00
2019-02-26T02:32:32.341Z,0.00
2019-02-26T02:33:33.109Z,0.00
2019-02-26T02:34:32.956Z,0.00
2019-02-26T02:35:31.650Z,0.00
2019-02-26T02:36:30.626Z,0.00
2019-02-26T02:37:31.977Z,0.00
2019-02-26T02:38:30.603Z,0.00
2019-02-26T02:39:30.594Z,0.00
2019-02-26T02:40:30.582Z,0.00
2019-02-26T02:41:30.583Z,0.00
2019-02-26T02:42:30.560Z,0.00
2019-02-26T02:43:30.552Z,0.00
2019-02-26T02:44:30.539Z,0.00
2019-02-26T02:45:30.529Z,0.00
2019-02-26T02:46:30.518Z,0.00
2019-02-26T02:47:33.196Z,0.00
2019-02-26T02:48:30.508Z,0.00
2019-02-26T02:49:32.777Z,0.00
2019-02-26T02:50:31.487Z,0.00
2019-02-26T02:51:31.539Z,0.00
2019-02-26T02:52:32.472Z,0.00
2019-02-26T02:53:32.280Z,0.00
2019-02-26T02:54:30.443Z,0.00
2019-02-26T02:55:30.424Z,0.00
2019-02-26T02:56:30.911Z,0.00
2019-02-26T02:57:32.632Z,0.00
2019-02-26T02:58:30.398Z,0.00
2019-02-26T02:59:31.024Z,0.00
2019-02-26T03:00:32.159Z,0.00
2019-02-26T03:01:30.361Z,0.00
2019-02-26T03:02:30.351Z,0.00
2019-02-26T03:03:30.339Z,0.00
2019-02-26T03:04:31.745Z,0.00
2019-02-26T03:05:33.683Z,0.00
2019-02-26T03:06:32.388Z,0.00
2019-02-26T03:07:30.298Z,0.00
2019-02-26T03:08:30.287Z,0.00
2019-02-26T03:09:31.763Z,0.00
2019-02-26T03:10:33.523Z,0.00
2019-02-26T03:11:30.277Z,0.00
2019-02-26T03:12:30.247Z,0.00
2019-02-26T03:13:30.240Z,0.00
2019-02-26T03:14:33.054Z,0.00
2019-02-26T03:15:33.768Z,0.00
2019-02-26T03:16:30.205Z,0.00
2019-02-26T03:17:30.209Z,0.00
2019-02-26T03:18:30.184Z,0.00
2019-02-26T03:19:32.452Z,0.00
2019-02-26T03:20:31.347Z,0.00
2019-02-26T03:21:31.152Z,0.00
2019-02-26T03:22:30.148Z,0.00
2019-02-26T03:23:31.360Z,0.00
2019-02-26T03:24:31.408Z,0.00
2019-02-26T03:25:30.111Z,0.00
2019-02-26T03:26:30.106Z,0.00
2019-02-26T03:27:31.317Z,0.00
2019-02-26T03:28:34.882Z,0.00
2019-02-26T03:29:31.084Z,0.00
2019-02-26T03:30:36.886Z,0.00
2019-02-26T03:31:35.197Z,0.00
2019-02-26T03:32:31.046Z,0.00
2019-02-26T03:33:30.029Z,0.00
2019-02-26T03:34:30.030Z,0.00
2019-02-26T03:35:30.017Z,0.00
2019-02-26T03:36:31.628Z,0.00
2019-02-26T03:37:31.407Z,0.00
2019-02-26T03:38:29.976Z,0.00
2019-02-26T03:39:29.965Z,0.00
2019-02-26T03:40:32.909Z,0.00
2019-02-26T03:41:31.243Z,0.00
2019-02-26T03:42:29.934Z,0.00
2019-02-26T03:43:31.440Z,0.00
2019-02-26T03:44:30.429Z,0.00
2019-02-26T03:45:29.902Z,0.00
2019-02-26T03:46:29.892Z,0.00
2019-02-26T03:47:29.893Z,0.00
2019-02-26T03:48:29.873Z,0.00
2019-02-26T03:49:29.862Z,0.00
2019-02-26T03:50:29.854Z,0.00
2019-02-26T03:51:29.848Z,0.00
2019-02-26T03:52:32.137Z,0.00
2019-02-26T03:53:31.322Z,0.00
2019-02-26T03:54:29.810Z,0.00
2019-02-26T03:55:31.727Z,0.00
2019-02-26T03:56:29.788Z,0.00
2019-02-26T03:57:29.778Z,0.00
2019-02-26T03:58:29.767Z,0.00
2019-02-26T03:59:29.771Z,0.00
2019-02-26T04:00:31.558Z,0.00
2019-02-26T04:01:29.739Z,0.00
2019-02-26T04:02:29.726Z,0.00
2019-02-26T04:03:31.998Z,0.00
2019-02-26T04:04:31.113Z,0.00
2019-02-26T04:05:29.713Z,0.00
2019-02-26T04:06:30.596Z,0.00
2019-02-26T04:07:30.253Z,0.00
2019-02-26T04:08:30.308Z,0.00
2019-02-26T04:09:29.657Z,0.00
2019-02-26T04:10:29.645Z,0.00
2019-02-26T04:11:29.644Z,0.00
2019-02-26T04:12:29.627Z,0.00
2019-02-26T04:13:29.616Z,0.00
2019-02-26T04:14:30.720Z,0.00
2019-02-26T04:15:31.027Z,0.00
2019-02-26T04:16:30.309Z,0.00
2019-02-26T04:17:30.743Z,0.00
2019-02-26T04:18:34.150Z,0.00
2019-02-26T04:19:30.550Z,0.00
2019-02-26T04:20:29.539Z,0.00
2019-02-26T04:21:29.529Z,0.00
2019-02-26T04:22:29.520Z,0.00
2019-02-26T04:23:29.522Z,0.00
2019-02-26T04:24:32.603Z,0.00
2019-02-26T04:25:33.264Z,0.00
2019-02-26T04:26:34.419Z,0.00
2019-02-26T04:27:30.700Z,0.00
2019-02-26T04:28:33.099Z,0.00
2019-02-26T04:29:29.458Z,0.00
2019-02-26T04:30:34.072Z,0.00
2019-02-26T04:31:30.424Z,0.00
2019-02-26T04:32:29.414Z,0.00
2019-02-26T04:33:30.413Z,0.00
2019-02-26T04:34:29.441Z,0.00
2019-02-26T04:35:29.396Z,0.00
2019-02-26T04:36:29.371Z,0.00
2019-02-26T04:37:30.710Z,0.00
2019-02-26T04:38:31.190Z,0.00
2019-02-26T04:39:29.352Z,0.00
2019-02-26T04:40:30.393Z,0.00
2019-02-26T04:41:29.329Z,0.00
2019-02-26T04:42:29.310Z,0.00
2019-02-26T04:43:31.316Z,0.00
2019-02-26T04:44:31.333Z,0.00
2019-02-26T04:45:29.277Z,0.00
2019-02-26T04:46:31.602Z,0.00
2019-02-26T04:47:33.146Z,0.00
2019-02-26T04:48:31.704Z,0.00
2019-02-26T04:49:30.890Z,0.00
2019-02-26T04:50:32.376Z,0.00
2019-02-26T04:51:30.221Z,0.00
2019-02-26T04:52:31.597Z,0.00
2019-02-26T04:53:31.195Z,0.00
2019-02-26T04:54:31.182Z,0.00
2019-02-26T04:55:31.872Z,0.00
2019-02-26T04:56:31.416Z,0.00
2019-02-26T04:57:29.151Z,0.00
2019-02-26T04:58:29.140Z,0.00
2019-02-26T04:59:30.008Z,0.00
2019-02-26T05:00:30.384Z,0.00
2019-02-26T05:01:29.119Z,0.00
2019-02-26T05:02:29.099Z,0.00
2019-02-26T05:03:29.089Z,0.00
2019-02-26T05:04:30.739Z,0.00
2019-02-26T05:05:33.675Z,0.00
2019-02-26T05:06:30.067Z,0.00
2019-02-26T05:07:29.054Z,0.00
2019-02-26T05:08:31.556Z,0.00
2019-02-26T05:09:30.619Z,0.00
2019-02-26T05:10:31.766Z,0.00
2019-02-26T05:11:32.679Z,0.00
2019-02-26T05:12:31.643Z,0.00
2019-02-26T05:13:30.064Z,0.00
2019-02-26T05:14:28.970Z,0.00
2019-02-26T05:15:30.923Z,0.00
2019-02-26T05:16:31.736Z,0.00
2019-02-26T05:17:32.630Z,0.00
2019-02-26T05:18:31.633Z,0.00
2019-02-26T05:19:28.914Z,0.00
2019-02-26T05:20:31.266Z,0.00
2019-02-26T05:21:30.419Z,0.00
2019-02-26T05:22:31.004Z,0.00
2019-02-26T05:23:31.693Z,0.00
2019-02-26T05:24:28.861Z,0.00
2019-02-26T05:25:28.851Z,0.00
2019-02-26T05:26:30.231Z,0.00
2019-02-26T05:27:28.829Z,0.00
2019-02-26T05:28:32.690Z,0.00
2019-02-26T05:29:28.818Z,0.00
2019-02-26T05:30:28.796Z,0.00
2019-02-26T05:31:29.624Z,0.00
2019-02-26T05:32:30.911Z,0.00
2019-02-26T05:33:30.975Z,0.00
2019-02-26T05:34:28.754Z,0.00
2019-02-26T05:35:28.755Z,0.00
2019-02-26T05:36:31.095Z,0.00
2019-02-26T05:37:29.798Z,0.00
2019-02-26T05:38:30.567Z,0.00
2019-02-26T05:39:28.955Z,0.00
2019-02-26T05:40:28.691Z,0.00
2019-02-26T05:41:28.699Z,0.00
2019-02-26T05:42:28.670Z,0.00
2019-02-26T05:43:30.671Z,0.00
2019-02-26T05:44:28.651Z,0.00
2019-02-26T05:45:29.866Z,0.00
2019-02-26T05:46:29.483Z,0.00
2019-02-26T05:47:28.630Z,0.00
2019-02-26T05:48:28.661Z,0.00
2019-02-26T05:49:28.597Z,0.00
2019-02-26T05:50:30.220Z,0.00
2019-02-26T05:51:31.984Z,0.00
2019-02-26T05:52:30.646Z,0.00
2019-02-26T05:53:28.567Z,4.00
2019-02-26T05:54:28.547Z,4.00
2019-02-26T05:55:28.555Z,4.00
2019-02-26T05:56:28.523Z,4.00
2019-02-26T05:57:32.561Z,4.00
2019-02-26T05:58:28.503Z,4.00
2019-02-26T05:59:28.505Z,4.00
2019-02-26T06:00:30.567Z,8.00
2019-02-26T06:01:28.471Z,8.00
2019-02-26T06:02:28.460Z,8.00
2019-02-26T06:03:28.451Z,8.00
2019-02-26T06:04:28.441Z,12.00
2019-02-26T06:05:28.444Z,16.00
2019-02-26T06:06:28.420Z,16.00
2019-02-26T06:07:31.364Z,20.00
2019-02-26T06:08:32.675Z,24.00
2019-02-26T06:09:30.549Z,24.00
2019-02-26T06:10:30.518Z,32.00
2019-02-26T06:11:31.240Z,36.00
2019-02-26T06:12:32.415Z,40.00
2019-02-26T06:13:29.150Z,48.00
2019-02-26T06:14:31.206Z,56.00
2019-02-26T06:15:29.637Z,64.00
2019-02-26T06:16:29.050Z,72.00
2019-02-26T06:17:28.318Z,84.00
2019-02-26T06:18:28.295Z,96.00
2019-02-26T06:19:30.102Z,112.00
2019-02-26T06:20:30.771Z,124.00
2019-02-26T06:21:28.263Z,136.00
2019-02-26T06:22:29.696Z,152.00
2019-02-26T06:23:31.216Z,168.00
2019-02-26T06:24:29.811Z,180.00
2019-02-26T06:25:28.239Z,196.00
2019-02-26T06:26:32.407Z,216.00
2019-02-26T06:27:28.199Z,232.00
2019-02-26T06:28:28.189Z,256.00
2019-02-26T06:29:30.002Z,280.00
2019-02-26T06:30:28.168Z,304.00
2019-02-26T06:31:28.158Z,332.00
2019-02-26T06:32:31.967Z,364.00
2019-02-26T06:33:31.761Z,392.00
2019-02-26T06:34:28.126Z,424.00
2019-02-26T06:35:28.126Z,456.00
2019-02-26T06:36:28.677Z,488.00
2019-02-26T06:37:29.176Z,528.00
2019-02-26T06:38:30.289Z,556.00
2019-02-26T06:39:29.951Z,584.00
2019-02-26T06:40:28.065Z,612.00
2019-02-26T06:41:28.066Z,640.00
2019-02-26T06:42:28.822Z,672.00
2019-02-26T06:43:28.032Z,712.00
2019-02-26T06:44:28.024Z,744.00
2019-02-26T06:45:28.012Z,780.00
2019-02-26T06:46:29.384Z,808.00
2019-02-26T06:47:30.524Z,836.00
2019-02-26T06:48:29.803Z,856.00
2019-02-26T06:49:29.094Z,900.00
2019-02-26T06:50:27.960Z,940.00
2019-02-26T06:51:28.918Z,976.00
2019-02-26T06:52:29.892Z,1012.00
2019-02-26T06:53:27.939Z,1044.00
2019-02-26T06:54:29.150Z,1076.00
2019-02-26T06:55:27.907Z,1108.00
2019-02-26T06:56:30.013Z,1144.00
2019-02-26T06:57:27.886Z,1180.00
2019-02-26T06:58:27.875Z,1224.00
2019-02-26T06:59:29.477Z,1268.00
2019-02-26T07:00:29.379Z,1320.00
2019-02-26T07:01:27.845Z,1384.00
2019-02-26T07:02:29.037Z,1456.00
2019-02-26T07:03:27.823Z,1516.00
2019-02-26T07:04:30.050Z,1564.00
2019-02-26T07:05:27.818Z,1588.00
2019-02-26T07:06:30.179Z,1636.00
2019-02-26T07:07:27.781Z,1688.00
2019-02-26T07:08:30.412Z,1744.00
2019-02-26T07:09:27.761Z,1800.00
2019-02-26T07:10:29.530Z,1852.00
2019-02-26T07:11:30.168Z,1936.00
2019-02-26T07:12:27.731Z,2024.00
2019-02-26T07:13:27.720Z,2092.00
2019-02-26T07:14:29.735Z,2428.00
2019-02-26T07:15:29.322Z,3412.00
2019-02-26T07:16:27.687Z,4532.00
2019-02-26T07:17:31.876Z,4996.00
2019-02-26T07:18:28.664Z,4512.00
2019-02-26T07:19:28.894Z,3808.00
2019-02-26T07:20:33.910Z,3348.00
2019-02-26T07:21:28.633Z,3172.00
2019-02-26T07:22:27.625Z,3084.00
2019-02-26T07:23:29.811Z,3024.00
2019-02-26T07:24:27.602Z,2996.00
2019-02-26T07:25:27.594Z,2996.00
2019-02-26T07:26:27.581Z,3048.00
2019-02-26T07:27:28.877Z,3096.00
2019-02-26T07:28:27.559Z,3132.00
2019-02-26T07:29:30.794Z,3180.00
2019-02-26T07:30:28.537Z,3208.00
2019-02-26T07:31:28.814Z,3252.00
2019-02-26T07:32:27.517Z,3280.00
2019-02-26T07:33:29.742Z,3312.00
2019-02-26T07:34:27.536Z,3344.00
2019-02-26T07:35:28.792Z,3376.00
2019-02-26T07:36:28.159Z,3416.00
2019-02-26T07:37:28.627Z,3488.00
2019-02-26T07:38:27.745Z,3572.00
2019-02-26T07:39:27.441Z,3652.00
2019-02-26T07:40:28.406Z,3760.00
2019-02-26T07:41:28.389Z,3904.00
2019-02-26T07:42:27.408Z,4132.00
2019-02-26T07:43:27.398Z,4500.00
2019-02-26T07:44:28.384Z,4924.00
2019-02-26T07:45:29.292Z,5132.00
2019-02-26T07:46:27.367Z,5200.00
2019-02-26T07:47:29.414Z,5384.00
2019-02-26T07:48:29.454Z,5640.00
2019-02-26T07:49:27.335Z,5624.00
2019-02-26T07:50:31.485Z,5588.00
2019-02-26T07:51:29.394Z,5508.00
2019-02-26T07:52:28.437Z,5508.00
2019-02-26T07:53:27.313Z,5656.00
2019-02-26T07:54:28.851Z,5828.00
2019-02-26T07:55:27.701Z,5844.00
2019-02-26T07:56:28.186Z,5884.00
2019-02-26T07:57:27.712Z,5940.00
2019-02-26T07:58:27.239Z,6032.00
2019-02-26T07:59:27.919Z,6100.00
2019-02-26T08:00:27.215Z,6188.00
2019-02-26T08:01:27.203Z,6448.00
2019-02-26T08:02:27.825Z,6740.00
2019-02-26T08:03:29.291Z,6744.00
2019-02-26T08:04:27.186Z,6492.00
2019-02-26T08:05:28.878Z,6396.00
2019-02-26T08:06:29.203Z,6428.00
2019-02-26T08:07:28.501Z,6452.00
2019-02-26T08:08:27.128Z,6368.00
2019-02-26T08:09:27.120Z,6608.00
2019-02-26T08:10:27.106Z,6972.00
2019-02-26T08:11:27.112Z,7320.00
2019-02-26T08:12:27.085Z,7408.00
2019-02-26T08:13:29.852Z,7224.00
2019-02-26T08:14:27.063Z,7128.00
2019-02-26T08:15:27.808Z,7096.00
2019-02-26T08:16:27.686Z,7188.00
2019-02-26T08:17:27.045Z,7732.00
2019-02-26T08:18:27.022Z,7904.00
2019-02-26T08:19:29.616Z,8028.00
2019-02-26T08:20:28.437Z,8588.00
2019-02-26T08:21:27.916Z,9428.00
2019-02-26T08:22:27.562Z,9948.00
2019-02-26T08:23:26.976Z,10536.00
2019-02-26T08:24:26.957Z,10796.00
2019-02-26T08:25:26.954Z,10776.00
2019-02-26T08:26:29.057Z,11236.00
2019-02-26T08:27:28.568Z,12376.00
2019-02-26T08:28:26.911Z,12696.00
2019-02-26T08:29:28.899Z,11932.00
2019-02-26T08:30:26.892Z,10460.00
2019-02-26T08:31:27.923Z,9508.00
2019-02-26T08:32:28.631Z,9816.00
2019-02-26T08:33:26.866Z,11052.00
2019-02-26T08:34:26.847Z,11824.00
2019-02-26T08:35:26.853Z,11280.00
2019-02-26T08:36:26.823Z,11276.00
2019-02-26T08:37:26.812Z,11844.00
2019-02-26T08:38:29.247Z,11760.00
2019-02-26T08:39:26.793Z,12152.00
2019-02-26T08:40:26.795Z,12456.00
2019-02-26T08:41:26.779Z,12680.00
2019-02-26T08:42:26.759Z,13212.00
2019-02-26T08:43:26.747Z,14044.00
2019-02-26T08:44:28.160Z,14976.00
2019-02-26T08:45:26.726Z,14784.00
2019-02-26T08:46:26.719Z,14016.00
2019-02-26T08:47:26.718Z,14016.00
2019-02-26T08:48:27.092Z,14112.00
2019-02-26T08:49:26.692Z,14400.00
2019-02-26T08:50:30.721Z,14752.00
2019-02-26T08:51:27.660Z,14720.00
2019-02-26T08:52:28.953Z,15104.00
2019-02-26T08:53:28.524Z,15264.00
2019-02-26T08:54:28.390Z,14976.00
2019-02-26T08:55:26.620Z,14816.00
2019-02-26T08:56:28.176Z,14144.00
2019-02-26T08:57:26.601Z,14048.00
2019-02-26T08:58:28.254Z,15136.00
2019-02-26T08:59:26.584Z,15968.00
2019-02-26T09:00:26.564Z,15680.00
2019-02-26T09:01:26.556Z,17088.00
2019-02-26T09:02:26.542Z,18368.00
2019-02-26T09:03:26.530Z,18208.00
2019-02-26T09:04:26.522Z,18272.00
2019-02-26T09:05:29.163Z,19072.00
2019-02-26T09:06:27.497Z,19456.00
2019-02-26T09:07:26.500Z,18944.00
2019-02-26T09:08:26.489Z,18368.00
2019-02-26T09:09:27.785Z,17664.00
2019-02-26T09:10:26.469Z,19424.00
2019-02-26T09:11:28.651Z,21600.00
2019-02-26T09:12:27.262Z,19520.00
2019-02-26T09:13:26.425Z,18592.00
2019-02-26T09:14:26.417Z,19488.00
2019-02-26T09:15:26.407Z,20160.00
2019-02-26T09:16:28.280Z,20192.00
2019-02-26T09:17:27.521Z,18944.00
2019-02-26T09:18:28.051Z,18112.00
2019-02-26T09:19:27.845Z,17280.00
2019-02-26T09:20:26.348Z,15840.00
2019-02-26T09:21:26.342Z,14624.00
2019-02-26T09:22:28.383Z,13020.00
2019-02-26T09:23:28.249Z,11556.00
2019-02-26T09:24:26.300Z,10416.00
2019-02-26T09:25:28.830Z,8872.00
2019-02-26T09:26:26.283Z,8160.00
2019-02-26T09:27:27.215Z,7708.00
2019-02-26T09:28:27.153Z,7376.00
2019-02-26T09:29:26.258Z,7324.00
2019-02-26T09:30:28.057Z,7220.00
2019-02-26T09:31:26.228Z,7104.00
2019-02-26T09:32:28.267Z,6960.00
2019-02-26T09:33:30.554Z,6876.00
2019-02-26T09:34:29.287Z,6868.00
2019-02-26T09:35:28.832Z,6868.00
2019-02-26T09:36:29.147Z,6800.00
2019-02-26T09:37:26.161Z,6716.00
2019-02-26T09:38:26.681Z,6636.00
2019-02-26T09:39:27.512Z,6520.00
2019-02-26T09:40:28.553Z,6452.00
2019-02-26T09:41:26.116Z,6392.00
2019-02-26T09:42:27.805Z,6248.00
2019-02-26T09:43:26.099Z,6100.00
2019-02-26T09:44:26.926Z,5912.00
2019-02-26T09:45:29.646Z,5620.00
2019-02-26T09:46:26.079Z,5164.00
2019-02-26T09:47:28.422Z,4656.00
2019-02-26T09:48:26.042Z,4340.00
2019-02-26T09:49:26.725Z,4168.00
2019-02-26T09:50:26.021Z,4028.00
2019-02-26T09:51:26.013Z,3928.00
2019-02-26T09:52:27.698Z,3852.00
2019-02-26T09:53:25.989Z,3784.00
2019-02-26T09:54:25.978Z,3720.00
2019-02-26T09:55:25.968Z,3672.00
2019-02-26T09:56:25.957Z,3624.00
2019-02-26T09:57:28.186Z,3580.00
2019-02-26T09:58:25.953Z,3536.00
2019-02-26T09:59:26.456Z,3492.00
2019-02-26T10:00:29.100Z,3464.00
2019-02-26T10:01:25.906Z,3436.00
2019-02-26T10:02:26.431Z,3396.00
2019-02-26T10:03:27.302Z,3368.00
2019-02-26T10:04:26.531Z,3348.00
2019-02-26T10:05:25.862Z,3328.00
2019-02-26T10:06:25.849Z,3312.00
2019-02-26T10:07:26.562Z,3304.00
2019-02-26T10:08:28.126Z,3300.00
2019-02-26T10:09:25.817Z,3296.00
2019-02-26T10:10:28.237Z,3280.00
2019-02-26T10:11:27.958Z,3272.00
2019-02-26T10:12:27.998Z,3260.00
2019-02-26T10:13:27.700Z,3240.00
2019-02-26T10:14:26.966Z,3224.00
2019-02-26T10:15:25.754Z,3208.00
2019-02-26T10:16:28.112Z,3188.00
2019-02-26T10:17:25.732Z,3164.00
2019-02-26T10:18:27.789Z,3148.00
2019-02-26T10:19:25.711Z,3128.00
2019-02-26T10:20:28.599Z,3116.00
2019-02-26T10:21:26.740Z,3096.00
2019-02-26T10:22:26.144Z,3064.00
2019-02-26T10:23:26.822Z,3044.00
2019-02-26T10:24:27.335Z,3020.00
2019-02-26T10:25:26.383Z,3000.00
2019-02-26T10:26:26.425Z,2988.00
2019-02-26T10:27:25.645Z,2968.00
2019-02-26T10:28:25.613Z,2936.00
2019-02-26T10:29:25.604Z,2912.00
2019-02-26T10:30:27.705Z,2892.00
2019-02-26T10:31:27.477Z,2864.00
2019-02-26T10:32:26.485Z,2840.00
2019-02-26T10:33:25.569Z,2816.00
2019-02-26T10:34:30.020Z,2796.00
2019-02-26T10:35:33.101Z,2776.00
2019-02-26T10:36:30.342Z,2760.00
2019-02-26T10:37:26.513Z,2748.00
2019-02-26T10:38:29.618Z,2736.00
2019-02-26T10:39:28.345Z,2720.00
2019-02-26T10:40:34.666Z,2708.00
2019-02-26T10:41:26.469Z,2696.00
2019-02-26T10:42:25.465Z,2684.00
2019-02-26T10:43:25.449Z,2672.00
2019-02-26T10:44:25.438Z,2656.00
2019-02-26T10:45:25.440Z,2648.00
2019-02-26T10:46:25.416Z,2628.00
2019-02-26T10:47:27.329Z,2620.00
2019-02-26T10:48:27.986Z,2600.00
2019-02-26T10:49:25.411Z,2592.00
2019-02-26T10:50:31.031Z,2572.00
2019-02-26T10:51:27.188Z,2560.00
2019-02-26T10:52:26.375Z,2548.00
2019-02-26T10:53:25.340Z,2536.00
2019-02-26T10:54:25.336Z,2536.00
2019-02-26T10:55:31.361Z,2528.00
2019-02-26T10:56:28.710Z,2516.00
2019-02-26T10:57:26.980Z,2504.00
2019-02-26T10:58:25.291Z,2496.00
2019-02-26T10:59:25.283Z,2488.00
2019-02-26T11:00:27.934Z,2480.00
2019-02-26T11:01:28.725Z,2468.00
2019-02-26T11:02:27.815Z,2452.00
2019-02-26T11:03:25.244Z,2436.00
2019-02-26T11:04:34.505Z,2416.00
2019-02-26T11:05:26.767Z,2396.00
2019-02-26T11:06:25.201Z,2380.00
2019-02-26T11:07:26.429Z,2352.00
2019-02-26T11:08:27.239Z,2332.00
2019-02-26T11:09:28.715Z,2312.00
2019-02-26T11:10:25.328Z,2292.00
2019-02-26T11:11:25.150Z,2280.00
2019-02-26T11:12:27.763Z,2272.00
2019-02-26T11:13:25.882Z,2272.00
2019-02-26T11:14:25.114Z,2264.00
2019-02-26T11:15:26.923Z,2264.00
2019-02-26T11:16:27.817Z,2260.00
2019-02-26T11:17:26.407Z,2256.00
2019-02-26T11:18:25.070Z,2252.00
2019-02-26T11:19:27.218Z,2248.00
2019-02-26T11:20:27.672Z,2248.00
2019-02-26T11:21:26.048Z,2244.00
2019-02-26T11:22:25.793Z,2240.00
2019-02-26T11:23:30.913Z,2240.00
2019-02-26T11:24:28.180Z,2236.00
2019-02-26T11:25:27.327Z,2228.00
2019-02-26T11:26:24.982Z,2224.00
2019-02-26T11:27:24.982Z,2212.00
2019-02-26T11:28:29.760Z,2200.00
2019-02-26T11:29:26.128Z,2220.00
2019-02-26T11:30:28.585Z,2216.00
2019-02-26T11:31:25.588Z,2212.00
2019-02-26T11:32:27.173Z,2196.00
2019-02-26T11:33:24.918Z,2192.00
2019-02-26T11:34:25.542Z,2188.00
2019-02-26T11:35:27.144Z,2184.00
2019-02-26T11:36:25.187Z,2180.00
2019-02-26T11:37:27.059Z,2176.00
2019-02-26T11:38:24.849Z,2172.00
2019-02-26T11:39:24.849Z,2168.00
2019-02-26T11:40:27.410Z,2168.00
2019-02-26T11:41:26.458Z,2160.00
2019-02-26T11:42:26.185Z,2156.00
2019-02-26T11:43:26.900Z,2152.00
2019-02-26T11:44:25.805Z,2148.00
2019-02-26T11:45:24.783Z,2144.00
2019-02-26T11:46:26.772Z,2140.00
2019-02-26T11:47:24.750Z,2140.00
2019-02-26T11:48:25.915Z,2136.00
2019-02-26T11:49:24.728Z,2132.00
2019-02-26T11:50:28.046Z,2128.00
2019-02-26T11:51:24.717Z,2124.00
2019-02-26T11:52:24.695Z,2112.00
2019-02-26T11:53:24.701Z,2116.00
2019-02-26T11:54:24.675Z,2108.00
2019-02-26T11:55:26.909Z,2096.00
2019-02-26T11:56:25.720Z,2100.00
2019-02-26T11:57:24.654Z,2092.00
2019-02-26T11:58:26.907Z,2084.00
2019-02-26T11:59:24.617Z,2076.00
2019-02-26T12:00:25.853Z,2052.00
2019-02-26T12:01:27.042Z,2056.00
2019-02-26T12:02:28.006Z,2064.00
2019-02-26T12:03:28.051Z,2060.00
2019-02-26T12:04:25.019Z,2052.00
2019-02-26T12:05:32.851Z,2044.00
2019-02-26T12:06:25.539Z,2036.00
2019-02-26T12:07:26.862Z,2024.00
2019-02-26T12:08:25.746Z,2012.00
2019-02-26T12:09:24.526Z,2008.00
2019-02-26T12:10:27.089Z,2000.00
2019-02-26T12:11:25.485Z,1988.00
2019-02-26T12:12:25.730Z,1980.00
2019-02-26T12:13:25.080Z,1980.00
2019-02-26T12:14:24.453Z,1976.00
2019-02-26T12:15:24.453Z,1972.00
2019-02-26T12:16:24.431Z,1968.00
2019-02-26T12:17:24.420Z,1968.00
2019-02-26T12:18:24.409Z,1964.00
2019-02-26T12:19:25.645Z,1960.00
2019-02-26T12:20:24.388Z,1960.00
2019-02-26T12:21:25.215Z,1960.00
2019-02-26T12:22:25.177Z,1960.00
2019-02-26T12:23:24.355Z,1956.00
2019-02-26T12:24:26.430Z,1948.00
2019-02-26T12:25:24.335Z,1940.00
2019-02-26T12:26:25.525Z,1940.00
2019-02-26T12:27:24.324Z,1944.00
2019-02-26T12:28:25.476Z,1932.00
2019-02-26T12:29:26.038Z,1924.00
2019-02-26T12:30:24.281Z,1916.00
2019-02-26T12:31:25.384Z,1920.00
2019-02-26T12:32:24.990Z,1912.00
2019-02-26T12:33:24.273Z,1904.00
2019-02-26T12:34:24.240Z,1896.00
2019-02-26T12:35:24.231Z,1896.00
2019-02-26T12:36:26.462Z,1896.00
2019-02-26T12:37:24.206Z,1892.00
2019-02-26T12:38:24.195Z,1880.00